Time;durP1;ratioP1;P1;durP2;ratioP2;P2;SDS_P1;SDS_P2;PMS_P1;PMS_P2;Temp;Humidity;BMP_temperature;BMP_pressure;BME280_temperature;BME280_humidity;BME280_pressure;Samples;Min_cycle;Max_cycle;Signal;HPM_P1;HPM_P2
2022/04/05 00:00:45;;;;;;;3.00;1.08;;;;;;;;;;5133173;27;20080;-79
2022/04/05 00:03:11;;;;;;;3.65;1.25;;;;;;;;;;5133098;27;20065;-79
2022/04/05 00:05:37;;;;;;;3.25;1.50;;;;;;;;;;5133636;27;20031;-78
2022/04/05 00:08:04;;;;;;;4.90;1.52;;;;;;;;;;5115560;27;20023;-78
2022/04/05 00:10:30;;;;;;;6.10;1.83;;;;;;;;;;5133939;27;20383;-79
2022/04/05 00:12:58;;;;;;;5.10;1.15;;;;;;;;;;5133861;27;20454;-77
2022/04/05 00:15:24;;;;;;;3.33;1.02;;;;;;;;;;5133752;27;20049;-77
2022/04/05 00:17:50;;;;;;;2.83;1.20;;;;;;;;;;5114548;27;20035;-78
2022/04/05 00:20:16;;;;;;;4.68;1.42;;;;;;;;;;5133844;27;20064;-79
2022/04/05 00:22:42;;;;;;;5.43;1.85;;;;;;;;;;5133427;27;20047;-79
2022/04/05 00:25:08;;;;;;;4.70;1.40;;;;;;;;;;5115330;27;20051;-78
2022/04/05 00:27:34;;;;;;;5.53;1.80;;;;;;;;;;5133134;27;20027;-78
2022/04/05 00:30:00;;;;;;;6.47;1.98;;;;;;;;;;5114856;27;20061;-78
2022/04/05 00:32:27;;;;;;;3.40;1.30;;;;;;;;;;5133109;27;20391;-77
2022/04/05 00:34:53;;;;;;;3.38;1.50;;;;;;;;;;5119603;27;20566;-78
2022/04/05 00:37:19;;;;;;;4.28;1.40;;;;;;;;;;5111131;27;20054;-78
2022/04/05 00:39:45;;;;;;;4.28;1.48;;;;;;;;;;5132585;27;20475;-78
2022/04/05 00:42:11;;;;;;;7.68;1.70;;;;;;;;;;5114461;27;20030;-77
2022/04/05 00:44:38;;;;;;;5.57;1.40;;;;;;;;;;5115087;27;20543;-78
2022/04/05 00:47:14;;;;;;;5.15;1.70;;;;;;;;;;5132945;27;20027;-77
2022/04/05 00:49:41;;;;;;;6.68;1.58;;;;;;;;;;5114202;27;20482;-78
2022/04/05 00:52:07;;;;;;;7.43;1.85;;;;;;;;;;5132910;27;20038;-78
2022/04/05 00:54:34;;;;;;;4.70;1.17;;;;;;;;;;5097321;27;20030;-77
2022/04/05 00:57:00;;;;;;;4.47;1.50;;;;;;;;;;5114284;27;20035;-76
2022/04/05 00:59:29;;;;;;;4.30;1.73;;;;;;;;;;5114385;27;20084;-78
2022/04/05 01:01:56;;;;;;;3.65;1.20;;;;;;;;;;5132474;27;20027;-78
2022/04/05 01:04:22;;;;;;;5.20;1.25;;;;;;;;;;5114147;27;20064;-78
2022/04/05 01:06:49;;;;;;;3.60;1.15;;;;;;;;;;5114052;27;20058;-78
2022/04/05 01:09:15;;;;;;;3.53;1.55;;;;;;;;;;5132579;27;20055;-78
2022/04/05 01:11:41;;;;;;;4.82;1.60;;;;;;;;;;5132026;27;20039;-77
2022/04/05 01:14:07;;;;;;;4.97;1.48;;;;;;;;;;5132494;27;20467;-77
2022/04/05 01:16:35;;;;;;;5.20;1.65;;;;;;;;;;5131818;27;20101;-78
2022/04/05 01:19:01;;;;;;;5.60;2.10;;;;;;;;;;5132768;27;20471;-79
2022/04/05 01:21:27;;;;;;;6.07;1.58;;;;;;;;;;5132590;27;20019;-79
2022/04/05 01:24:04;;;;;;;4.05;1.80;;;;;;;;;;5113565;27;20027;-80
2022/04/05 01:26:37;;;;;;;5.03;1.52;;;;;;;;;;5113390;27;20031;-80
2022/04/05 01:29:03;;;;;;;5.80;1.98;;;;;;;;;;5113617;27;20058;-80
2022/04/05 01:31:29;;;;;;;4.75;1.38;;;;;;;;;;5132407;27;20483;-80
2022/04/05 01:33:55;;;;;;;6.07;1.48;;;;;;;;;;5132382;27;20051;-79
2022/04/05 01:36:25;;;;;;;5.40;1.40;;;;;;;;;;5112995;28;20061;-79
2022/04/05 01:38:51;;;;;;;5.45;1.60;;;;;;;;;;5113468;27;20023;-77
2022/04/05 01:41:17;;;;;;;3.60;1.77;;;;;;;;;;5113168;27;20019;-81
2022/04/05 01:43:43;;;;;;;5.10;1.90;;;;;;;;;;5113447;27;20027;-80
2022/04/05 01:46:09;;;;;;;3.78;1.42;;;;;;;;;;5131916;27;20094;-81
2022/04/05 01:48:35;;;;;;;6.65;2.25;;;;;;;;;;5131758;27;20042;-80
2022/04/05 01:51:01;;;;;;;4.97;2.00;;;;;;;;;;5113750;27;20031;-80
2022/04/05 01:53:27;;;;;;;4.18;1.60;;;;;;;;;;5114141;28;20380;-81
2022/04/05 01:55:53;;;;;;;4.88;1.50;;;;;;;;;;5131588;27;20079;-81
2022/04/05 01:58:19;;;;;;;4.68;1.83;;;;;;;;;;5111749;28;20042;-82
2022/04/05 02:00:45;;;;;;;8.18;2.13;;;;;;;;;;5093001;28;20081;-82
2022/04/05 02:03:12;;;;;;;4.80;1.60;;;;;;;;;;5129630;27;20019;-82
2022/04/05 02:05:38;;;;;;;5.70;1.73;;;;;;;;;;5131416;28;20467;-80
2022/04/05 02:08:04;;;;;;;5.03;1.73;;;;;;;;;;5131474;27;20058;-81
2022/04/05 02:10:30;;;;;;;4.78;1.70;;;;;;;;;;5131229;27;20042;-80
2022/04/05 02:12:56;;;;;;;5.05;1.45;;;;;;;;;;5131822;27;20084;-80
2022/04/05 02:15:22;;;;;;;3.92;1.55;;;;;;;;;;5131894;28;20024;-79
2022/04/05 02:17:48;;;;;;;4.85;1.92;;;;;;;;;;5131350;28;20031;-81
2022/04/05 02:20:15;;;;;;;6.25;1.45;;;;;;;;;;5113278;28;20027;-79
2022/04/05 02:22:41;;;;;;;5.95;1.63;;;;;;;;;;5131043;27;20023;-80
2022/04/05 02:25:08;;;;;;;4.72;1.40;;;;;;;;;;5131682;27;20382;-82
2022/04/05 02:27:34;;;;;;;5.95;1.70;;;;;;;;;;5131433;28;20030;-79
2022/04/05 02:30:00;;;;;;;5.57;1.88;;;;;;;;;;5131541;27;20483;-79
2022/04/05 02:32:26;;;;;;;5.15;1.58;;;;;;;;;;5113469;28;20031;-80
2022/04/05 02:34:52;;;;;;;5.20;1.65;;;;;;;;;;5131264;28;20023;-79
2022/04/05 02:37:19;;;;;;;3.25;1.33;;;;;;;;;;5131304;27;20037;-79
2022/04/05 02:39:45;;;;;;;6.88;1.80;;;;;;;;;;5112707;27;20035;-78
2022/04/05 02:42:11;;;;;;;4.57;1.40;;;;;;;;;;5101855;28;20065;-80
2022/04/05 02:44:38;;;;;;;4.47;1.35;;;;;;;;;;5102350;28;20525;-77
2022/04/05 02:47:04;;;;;;;7.82;1.90;;;;;;;;;;5131416;27;20019;-81
2022/04/05 02:49:30;;;;;;;5.95;1.95;;;;;;;;;;5134138;27;20035;-81
2022/04/05 02:51:56;;;;;;;5.45;1.90;;;;;;;;;;5135471;27;20039;-80
2022/04/05 02:54:22;;;;;;;4.78;1.50;;;;;;;;;;5135311;27;20047;-79
2022/04/05 02:56:48;;;;;;;4.53;1.70;;;;;;;;;;5104586;28;20034;-80
2022/04/05 02:59:14;;;;;;;4.32;1.42;;;;;;;;;;5130110;27;20031;-79
2022/04/05 03:01:40;;;;;;;5.65;1.48;;;;;;;;;;5134492;27;20486;-79
2022/04/05 03:04:07;;;;;;;8.15;1.88;;;;;;;;;;5135002;27;20479;-79
2022/04/05 03:06:33;;;;;;;5.43;1.70;;;;;;;;;;5134344;27;20034;-79
2022/04/05 03:09:00;;;;;;;3.53;1.92;;;;;;;;;;5135447;27;20011;-80
2022/04/05 03:11:26;;;;;;;4.20;1.50;;;;;;;;;;5134723;27;20031;-76
2022/04/05 03:13:53;;;;;;;4.68;1.40;;;;;;;;;;5134555;27;20020;-78
2022/04/05 03:16:19;;;;;;;5.05;1.60;;;;;;;;;;5134799;27;20403;-77
2022/04/05 03:18:50;;;;;;;4.70;1.42;;;;;;;;;;5134392;27;20029;-77
2022/04/05 03:21:16;;;;;;;4.15;1.40;;;;;;;;;;5134841;27;20098;-79
2022/04/05 03:23:42;;;;;;;4.82;1.88;;;;;;;;;;5134464;27;20066;-83
2022/04/05 03:26:08;;;;;;;4.03;1.65;;;;;;;;;;5134604;27;20072;-81
2022/04/05 03:28:34;;;;;;;3.78;1.60;;;;;;;;;;5134098;27;20027;-77
2022/04/05 03:31:00;;;;;;;3.70;1.58;;;;;;;;;;5115671;27;20046;-79
2022/04/05 03:33:26;;;;;;;5.10;1.85;;;;;;;;;;5135184;27;20020;-77
2022/04/05 03:35:54;;;;;;;3.33;1.45;;;;;;;;;;5116125;27;20549;-80
2022/04/05 03:38:20;;;;;;;3.75;1.30;;;;;;;;;;5134184;27;20411;-77
2022/04/05 03:40:46;;;;;;;3.92;1.20;;;;;;;;;;5134013;27;20048;-80
2022/04/05 03:43:12;;;;;;;5.60;2.25;;;;;;;;;;5134436;27;20027;-78
2022/04/05 03:45:39;;;;;;;5.50;1.75;;;;;;;;;;5134153;27;20083;-82
2022/04/05 03:48:05;;;;;;;2.75;1.13;;;;;;;;;;5134169;27;20462;-81
2022/04/05 03:50:32;;;;;;;3.30;1.65;;;;;;;;;;5115914;27;20019;-81
2022/04/05 03:53:01;;;;;;;7.53;1.50;;;;;;;;;;5133922;27;20388;-80
2022/04/05 03:55:27;;;;;;;4.95;1.42;;;;;;;;;;5116254;27;20390;-79
2022/04/05 03:57:54;;;;;;;4.68;1.50;;;;;;;;;;5114952;27;20030;-80
2022/04/05 04:00:20;;;;;;;3.40;1.30;;;;;;;;;;5133580;27;20037;-79
2022/04/05 04:02:46;;;;;;;4.68;1.38;;;;;;;;;;5133455;27;20031;-81
2022/04/05 04:05:16;;;;;;;4.38;1.67;;;;;;;;;;5134258;27;20068;-78
2022/04/05 04:07:43;;;;;;;4.05;1.35;;;;;;;;;;5133628;27;20031;-79
2022/04/05 04:10:10;;;;;;;6.05;1.75;;;;;;;;;;5133182;27;20039;-82
2022/04/05 04:12:36;;;;;;;2.90;1.42;;;;;;;;;;5133580;27;20031;-80
2022/04/05 04:15:02;;;;;;;3.30;1.42;;;;;;;;;;5133646;27;20015;-82
2022/04/05 04:17:28;;;;;;;3.65;1.35;;;;;;;;;;5134032;27;20030;-81
2022/04/05 04:19:54;;;;;;;3.03;1.02;;;;;;;;;;5133757;27;20080;-82
2022/04/05 04:22:20;;;;;;;5.25;1.60;;;;;;;;;;5133409;27;20134;-82
2022/04/05 04:24:48;;;;;;;4.20;1.35;;;;;;;;;;5133093;27;20107;-81
2022/04/05 04:27:14;;;;;;;2.97;1.13;;;;;;;;;;5133442;27;20023;-81
2022/04/05 04:29:40;;;;;;;6.93;1.42;;;;;;;;;;5133258;27;20058;-82
2022/04/05 04:32:06;;;;;;;1.90;0.90;;;;;;;;;;5133090;27;20085;-82
2022/04/05 04:34:32;;;;;;;5.55;1.77;;;;;;;;;;5133222;27;20051;-80
2022/04/05 04:36:58;;;;;;;4.57;1.50;;;;;;;;;;5133222;27;20509;-80
2022/04/05 04:39:25;;;;;;;3.92;1.20;;;;;;;;;;5133397;27;20024;-80
2022/04/05 04:41:51;;;;;;;2.70;1.05;;;;;;;;;;5132434;27;20031;-80
2022/04/05 04:44:17;;;;;;;3.80;1.00;;;;;;;;;;5133206;27;20105;-79
2022/04/05 04:46:44;;;;;;;3.25;1.23;;;;;;;;;;5132724;27;20126;-81
2022/04/05 04:49:10;;;;;;;4.55;1.45;;;;;;;;;;5132993;27;20031;-81
2022/04/05 04:51:36;;;;;;;2.95;1.10;;;;;;;;;;5132496;27;20148;-80
2022/04/05 04:54:02;;;;;;;3.58;1.42;;;;;;;;;;5132837;27;20106;-78
2022/04/05 04:56:28;;;;;;;3.88;1.08;;;;;;;;;;5133359;27;20510;-77
2022/04/05 04:58:54;;;;;;;3.25;1.10;;;;;;;;;;5132887;27;20026;-77
2022/04/05 05:01:20;;;;;;;5.40;1.73;;;;;;;;;;5131910;27;21698;-79
2022/04/05 05:03:46;;;;;;;3.17;1.42;;;;;;;;;;5132750;27;20067;-80
2022/04/05 05:06:12;;;;;;;5.03;1.67;;;;;;;;;;5131139;27;20032;-78
2022/04/05 05:08:38;;;;;;;3.92;1.23;;;;;;;;;;5113835;27;20031;-80
2022/04/05 05:11:04;;;;;;;5.18;1.38;;;;;;;;;;5131128;27;20134;-77
2022/04/05 05:13:31;;;;;;;3.88;1.40;;;;;;;;;;5128010;27;20030;-78
2022/04/05 05:15:58;;;;;;;3.50;1.75;;;;;;;;;;5133090;27;20026;-80
2022/04/05 05:18:24;;;;;;;2.90;1.23;;;;;;;;;;5132772;27;20068;-81
2022/04/05 05:20:50;;;;;;;7.05;1.42;;;;;;;;;;5132409;27;20513;-77
2022/04/05 05:23:16;;;;;;;5.95;1.20;;;;;;;;;;5132784;27;20053;-79
2022/04/05 05:25:42;;;;;;;3.15;1.23;;;;;;;;;;5132435;27;20027;-81
2022/04/05 05:28:08;;;;;;;3.08;1.40;;;;;;;;;;5113814;27;20027;-77
2022/04/05 05:30:35;;;;;;;3.42;1.17;;;;;;;;;;5132625;27;20398;-79
2022/04/05 05:33:01;;;;;;;3.40;1.17;;;;;;;;;;5132166;27;20047;-80
2022/04/05 05:35:27;;;;;;;4.07;1.33;;;;;;;;;;5133034;27;20023;-80
2022/04/05 05:37:53;;;;;;;4.68;1.58;;;;;;;;;;5114238;27;20479;-83
2022/04/05 05:40:19;;;;;;;4.15;1.27;;;;;;;;;;5115119;27;20023;-80
2022/04/05 05:42:59;;;;;;;4.00;1.40;;;;;;;;;;5114559;27;20084;-84
2022/04/05 05:45:27;;;;;;;5.35;1.70;;;;;;;;;;5114315;27;20047;-82
2022/04/05 05:47:53;;;;;;;3.88;1.88;;;;;;;;;;5113550;27;20071;-78
2022/04/05 05:50:20;;;;;;;4.85;1.40;;;;;;;;;;5131314;27;20043;-81
2022/04/05 05:52:46;;;;;;;6.30;1.50;;;;;;;;;;5113361;27;20019;-75
2022/04/05 05:55:13;;;;;;;4.10;1.30;;;;;;;;;;5112917;27;20054;-74
2022/04/05 05:57:39;;;;;;;4.50;1.65;;;;;;;;;;5129535;27;20076;-78
2022/04/05 06:00:06;;;;;;;7.35;1.20;;;;;;;;;;5130515;27;20057;-74
2022/04/05 06:02:33;;;;;;;10.32;1.38;;;;;;;;;;5130765;27;20095;-77
2022/04/05 06:04:59;;;;;;;2.88;1.25;;;;;;;;;;5131432;28;20506;-75
2022/04/05 06:07:25;;;;;;;8.27;2.10;;;;;;;;;;5113853;28;20019;-75
2022/04/05 06:09:51;;;;;;;0.10;0.10;;;;;;;;;;5131868;27;20037;-79
2022/04/05 06:12:17;;;;;;;0.00;0.00;;;;;;;;;;5132236;28;20547;-78
2022/04/05 06:14:43;;;;;;;0.10;0.10;;;;;;;;;;5114135;28;20027;-80
2022/04/05 06:17:09;;;;;;;0.00;0.00;;;;;;;;;;5132521;27;20069;-81
2022/04/05 06:19:38;;;;;;;0.10;0.10;;;;;;;;;;5115303;28;20060;-79
2022/04/05 06:22:04;;;;;;;0.05;0.05;;;;;;;;;;5132722;27;20098;-82
2022/04/05 06:24:30;;;;;;;0.10;0.10;;;;;;;;;;5136700;27;20026;-82
2022/04/05 06:26:56;;;;;;;0.10;0.10;;;;;;;;;;5118803;27;20027;-81
2022/04/05 06:29:22;;;;;;;0.10;0.10;;;;;;;;;;5118319;27;20023;-81
2022/04/05 06:31:48;;;;;;;0.10;0.10;;;;;;;;;;5136401;27;20061;-82
2022/04/05 06:34:14;;;;;;;0.10;0.10;;;;;;;;;;5136431;27;20106;-81
2022/04/05 06:36:40;;;;;;;0.10;0.10;;;;;;;;;;5124179;27;20027;-77
2022/04/05 06:39:07;;;;;;;0.10;0.10;;;;;;;;;;5125282;27;20386;-77
2022/04/05 06:41:33;;;;;;;0.10;0.10;;;;;;;;;;5122333;27;20064;-77
2022/04/05 06:43:59;;;;;;;0.10;0.10;;;;;;;;;;5122764;27;20027;-78
2022/04/05 06:46:25;;;;;;;0.10;0.10;;;;;;;;;;5122728;27;20019;-77
2022/04/05 06:48:51;;;;;;;0.10;0.10;;;;;;;;;;5124702;27;20034;-79
2022/04/05 06:51:20;;;;;;;0.10;0.10;;;;;;;;;;5124979;27;20406;-77
2022/04/05 06:53:46;;;;;;;0.10;0.10;;;;;;;;;;5106573;27;20072;-77
2022/04/05 06:56:12;;;;;;;0.10;0.10;;;;;;;;;;5123816;27;20131;-78
2022/04/05 06:58:39;;;;;;;0.10;0.10;;;;;;;;;;5120974;27;20026;-77
2022/04/05 07:01:05;;;;;;;0.20;0.20;;;;;;;;;;5124872;27;20548;-77
2022/04/05 07:03:31;;;;;;;0.10;0.10;;;;;;;;;;5127892;27;20063;-78
2022/04/05 07:05:58;;;;;;;0.10;0.10;;;;;;;;;;5119217;27;20043;-78
2022/04/05 07:08:24;;;;;;;0.10;0.10;;;;;;;;;;5126278;27;20432;-80
2022/04/05 07:10:51;;;;;;;0.10;0.10;;;;;;;;;;5121985;27;20417;-81
2022/04/05 07:13:17;;;;;;;0.10;0.10;;;;;;;;;;5128424;27;20030;-78
2022/04/05 07:15:43;;;;;;;0.10;0.10;;;;;;;;;;5134555;27;20024;-81
2022/04/05 07:18:09;;;;;;;0.08;0.08;;;;;;;;;;5105352;27;20023;-78
2022/04/05 07:20:37;;;;;;;0.10;0.10;;;;;;;;;;5116466;27;20465;-78
2022/04/05 07:23:03;;;;;;;0.10;0.10;;;;;;;;;;5114867;28;20023;-76
2022/04/05 07:25:29;;;;;;;0.10;0.10;;;;;;;;;;5096810;28;20456;-80
2022/04/05 07:27:55;;;;;;;0.10;0.10;;;;;;;;;;5116162;28;20081;-80
2022/04/05 07:30:24;;;;;;;0.10;0.10;;;;;;;;;;5098039;28;20491;-80
2022/04/05 07:32:50;;;;;;;0.00;0.00;;;;;;;;;;5116576;28;20517;-79
2022/04/05 07:35:17;;;;;;;0.00;0.00;;;;;;;;;;5097597;28;20023;-81
2022/04/05 07:37:43;;;;;;;0.10;0.10;;;;;;;;;;5116963;28;20020;-80
2022/04/05 07:40:10;;;;;;;0.10;0.10;;;;;;;;;;5116143;28;20024;-81
2022/04/05 07:42:37;;;;;;;0.10;0.10;;;;;;;;;;5097204;28;20024;-80
2022/04/05 07:45:03;;;;;;;0.10;0.10;;;;;;;;;;5097589;28;20019;-80
2022/04/05 07:47:29;;;;;;;0.10;0.10;;;;;;;;;;5115412;28;20042;-80
2022/04/05 07:49:55;;;;;;;0.10;0.10;;;;;;;;;;5124985;27;20114;-80
2022/04/05 07:52:21;;;;;;;0.10;0.10;;;;;;;;;;5117017;27;20065;-80
2022/04/05 07:54:47;;;;;;;0.10;0.10;;;;;;;;;;5135908;27;20019;-81
2022/04/05 07:57:14;;;;;;;0.10;0.10;;;;;;;;;;5136213;27;20444;-81
2022/04/05 07:59:41;;;;;;;0.10;0.10;;;;;;;;;;5136078;27;20098;-80
2022/04/05 08:02:07;;;;;;;0.05;0.05;;;;;;;;;;5117418;27;20027;-81
2022/04/05 08:04:33;;;;;;;0.10;0.10;;;;;;;;;;5134042;27;20482;-80
2022/04/05 08:06:59;;;;;;;0.10;0.10;;;;;;;;;;5134699;27;20030;-81
2022/04/05 08:09:25;;;;;;;0.10;0.10;;;;;;;;;;5134936;27;20023;-81
2022/04/05 08:11:51;;;;;;;0.10;0.10;;;;;;;;;;5134313;27;20109;-79
2022/04/05 08:14:17;;;;;;;0.10;0.10;;;;;;;;;;5137489;27;20055;-79
2022/04/05 08:16:43;;;;;;;0.10;0.10;;;;;;;;;;5136242;27;20034;-80
2022/04/05 08:19:09;;;;;;;0.10;0.10;;;;;;;;;;5134695;27;20031;-80
2022/04/05 08:21:36;;;;;;;0.10;0.10;;;;;;;;;;5116488;27;20080;-80
2022/04/05 08:24:02;;;;;;;0.10;0.10;;;;;;;;;;5134835;27;20438;-80
2022/04/05 08:26:28;;;;;;;0.10;0.10;;;;;;;;;;5135395;27;20022;-80
2022/04/05 08:28:55;;;;;;;0.10;0.10;;;;;;;;;;5134788;27;20398;-79
2022/04/05 08:31:21;;;;;;;0.10;0.10;;;;;;;;;;5134814;27;20027;-80
2022/04/05 08:33:47;;;;;;;0.10;0.10;;;;;;;;;;5134682;27;20479;-79
2022/04/05 08:36:13;;;;;;;0.10;0.10;;;;;;;;;;5135277;27;20068;-80
2022/04/05 08:38:40;;;;;;;0.10;0.10;;;;;;;;;;5134434;27;20027;-80
2022/04/05 08:41:07;;;;;;;0.10;0.10;;;;;;;;;;5116208;27;20031;-80
2022/04/05 08:43:34;;;;;;;0.10;0.10;;;;;;;;;;5128210;27;20019;-80
2022/04/05 08:46:01;;;;;;;0.10;0.10;;;;;;;;;;5097172;28;20160;-81
2022/04/05 08:48:29;;;;;;;0.10;0.10;;;;;;;;;;5096156;28;20028;-81
2022/04/05 08:50:56;;;;;;;0.10;0.10;;;;;;;;;;5114664;28;20028;-81
2022/04/05 08:53:23;;;;;;;0.10;0.10;;;;;;;;;;5114079;28;20081;-81
2022/04/05 08:55:49;;;;;;;0.10;0.10;;;;;;;;;;5096289;28;20020;-81
2022/04/05 08:58:16;;;;;;;0.05;0.05;;;;;;;;;;5113673;28;20552;-80
2022/04/05 09:00:42;;;;;;;32.92;8.65;;;;;;;;;;5095054;28;20072;-80
2022/04/05 09:03:08;;;;;;;0.10;0.10;;;;;;;;;;5095714;28;20091;-81
2022/04/05 09:05:35;;;;;;;0.10;0.10;;;;;;;;;;5113573;28;20059;-81
2022/04/05 09:08:19;;;;;;;0.10;0.10;;;;;;;;;;5113789;28;20020;-81
2022/04/05 09:10:47;;;;;;;1.33;1.27;;;;;;;;;;5112384;28;20031;-81
2022/04/05 09:13:16;;;;;;;0.10;0.10;;;;;;;;;;5112502;28;20031;-81
2022/04/05 09:15:44;;;;;;;0.10;0.10;;;;;;;;;;5112756;28;20019;-81
2022/04/05 09:18:10;;;;;;;0.10;0.10;;;;;;;;;;5113479;28;20027;-81
2022/04/05 09:20:47;;;;;;;0.10;0.10;;;;;;;;;;5094872;28;20023;-80
2022/04/05 09:23:24;;;;;;;0.10;0.10;;;;;;;;;;5095936;28;20027;-81
2022/04/05 09:25:54;;;;;;;0.10;0.10;;;;;;;;;;5095150;28;20188;-81
2022/04/05 09:28:34;;;;;;;0.10;0.10;;;;;;;;;;5095467;28;20038;-81
2022/04/05 09:31:01;;;;;;;0.10;0.10;;;;;;;;;;5112221;28;20067;-81
2022/04/05 09:33:28;;;;;;;0.10;0.10;;;;;;;;;;5112421;28;20134;-80
2022/04/05 09:36:03;;;;;;;0.10;0.10;;;;;;;;;;5111961;28;20392;-81
2022/04/05 09:38:30;;;;;;;0.20;0.20;;;;;;;;;;5112350;28;20033;-81
2022/04/05 09:41:08;;;;;;;0.10;0.10;;;;;;;;;;5119818;27;20075;-80
2022/04/05 09:43:34;;;;;;;0.10;0.10;;;;;;;;;;5121759;27;20023;-80
2022/04/05 09:46:01;;;;;;;0.10;0.10;;;;;;;;;;5125987;27;20513;-80
2022/04/05 09:48:31;;;;;;;0.10;0.10;;;;;;;;;;5125846;27;20415;-81
2022/04/05 09:51:09;;;;;;;0.10;0.10;;;;;;;;;;5117994;27;20062;-81
2022/04/05 09:53:41;;;;;;;0.10;0.10;;;;;;;;;;5123563;27;20128;-80
2022/04/05 09:56:09;;;;;;;0.10;0.10;;;;;;;;;;5126176;27;20110;-81
2022/04/05 09:58:35;;;;;;;0.10;0.10;;;;;;;;;;5127801;27;20103;-81
2022/04/05 10:01:10;;;;;;;0.10;0.10;;;;;;;;;;5112149;27;20019;-80
2022/04/05 10:03:36;;;;;;;0.10;0.10;;;;;;;;;;5111443;28;20019;-79
2022/04/05 10:06:03;;;;;;;0.10;0.10;;;;;;;;;;5111714;28;20099;-79
2022/04/05 10:08:31;;;;;;;0.10;0.10;;;;;;;;;;5115751;28;20159;-81
2022/04/05 10:10:57;;;;;;;0.10;0.10;;;;;;;;;;5119853;28;20036;-80
2022/04/05 10:13:23;;;;;;;0.10;0.10;;;;;;;;;;5100929;28;20024;-80
2022/04/05 10:15:52;;;;;;;0.10;0.10;;;;;;;;;;5115975;28;20088;-78
2022/04/05 10:18:21;;;;;;;0.10;0.10;;;;;;;;;;5121541;28;20035;-82
2022/04/05 10:20:56;;;;;;;0.10;0.10;;;;;;;;;;5100792;28;20023;-82
2022/04/05 10:23:23;;;;;;;0.10;0.10;;;;;;;;;;5101588;28;20054;-83
2022/04/05 10:25:50;;;;;;;0.10;0.10;;;;;;;;;;5126085;27;20024;-84
2022/04/05 10:28:17;;;;;;;0.10;0.10;;;;;;;;;;5120022;28;20043;-83
2022/04/05 10:30:44;;;;;;;0.13;0.13;;;;;;;;;;5114893;28;20085;-85
2022/04/05 10:33:16;;;;;;;0.10;0.10;;;;;;;;;;5117374;28;20047;-83
2022/04/05 10:35:43;;;;;;;0.10;0.10;;;;;;;;;;5119678;28;20064;-83
2022/04/05 10:38:12;;;;;;;0.10;0.10;;;;;;;;;;5095282;28;20158;-86
2022/04/05 10:40:38;;;;;;;0.10;0.10;;;;;;;;;;5127013;28;20019;-83
2022/04/05 10:43:17;;;;;;;0.10;0.10;;;;;;;;;;5117565;28;20019;-82
2022/04/05 10:45:44;;;;;;;0.10;0.10;;;;;;;;;;5121562;28;20479;-78
2022/04/05 10:48:22;;;;;;;0.10;0.10;;;;;;;;;;5120740;28;20487;-81
2022/04/05 10:51:09;;;;;;;0.10;0.10;;;;;;;;;;5120278;28;20498;-81
2022/04/05 10:53:36;;;;;;;0.10;0.10;;;;;;;;;;5100858;28;20727;-79
2022/04/05 10:56:07;;;;;;;0.10;0.10;;;;;;;;;;5119111;28;20394;-84
2022/04/05 10:58:33;;;;;;;0.10;0.10;;;;;;;;;;5116395;28;20475;-82
2022/04/05 11:01:18;;;;;;;0.10;0.10;;;;;;;;;;5117395;28;20024;-82
2022/04/05 11:04:03;;;;;;;0.13;0.13;;;;;;;;;;5119912;28;20054;-84
2022/04/05 11:06:30;;;;;;;0.10;0.10;;;;;;;;;;5101640;28;20024;-81
2022/04/05 11:08:58;;;;;;;0.10;0.10;;;;;;;;;;5099100;28;20031;-81
2022/04/05 11:11:25;;;;;;;0.10;0.10;;;;;;;;;;5120960;27;20032;-89
2022/04/05 11:14:01;;;;;;;0.00;0.00;;;;;;;;;;5118797;27;20031;-78
2022/04/05 11:16:28;;;;;;;0.10;0.10;;;;;;;;;;5123079;27;20039;-78
2022/04/05 11:18:57;;;;;;;0.10;0.10;;;;;;;;;;5122122;27;20493;-78
2022/04/05 11:21:23;;;;;;;0.08;0.08;;;;;;;;;;5120529;27;20027;-79
2022/04/05 11:23:50;;;;;;;0.00;0.00;;;;;;;;;;5115523;28;20024;-81
2022/04/05 11:26:32;;;;;;;0.10;0.10;;;;;;;;;;5115765;28;20027;-82
2022/04/05 11:28:58;;;;;;;0.10;0.10;;;;;;;;;;5099241;28;20028;-78
2022/04/05 11:31:31;;;;;;;0.10;0.10;;;;;;;;;;5128817;28;20510;-82
2022/04/05 11:33:57;;;;;;;0.08;0.08;;;;;;;;;;5122720;28;20047;-86
2022/04/05 11:36:25;;;;;;;0.10;0.10;;;;;;;;;;5098174;28;20038;-89
2022/04/05 11:38:58;;;;;;;0.10;0.10;;;;;;;;;;5115776;28;20020;-87
2022/04/05 11:41:28;;;;;;;0.10;0.10;;;;;;;;;;5115981;28;20031;-85
2022/04/05 11:43:54;;;;;;;0.10;0.10;;;;;;;;;;5119228;27;20364;-87
2022/04/05 11:46:37;;;;;;;0.08;0.08;;;;;;;;;;5135965;27;20030;-89
2022/04/05 11:49:04;;;;;;;0.10;0.10;;;;;;;;;;5136125;27;20035;-89
2022/04/05 11:51:34;;;;;;;0.10;0.10;;;;;;;;;;5135447;27;20035;-88
2022/04/05 11:54:14;;;;;;;0.10;0.10;;;;;;;;;;5117326;27;20031;-85
2022/04/05 11:56:41;;;;;;;0.10;0.10;;;;;;;;;;5116914;27;20031;-84
2022/04/05 11:59:08;;;;;;;0.10;0.10;;;;;;;;;;5117332;27;20367;-84
2022/04/05 12:01:36;;;;;;;0.10;0.10;;;;;;;;;;5135228;27;20023;-85
2022/04/05 12:04:05;;;;;;;0.10;0.10;;;;;;;;;;5135376;27;20030;-87
2022/04/05 12:06:32;;;;;;;0.10;0.10;;;;;;;;;;5135208;27;20019;-84
2022/04/05 12:09:00;;;;;;;0.10;0.10;;;;;;;;;;5117584;27;20423;-86
2022/04/05 12:11:27;;;;;;;0.10;0.10;;;;;;;;;;5117083;27;20039;-86
2022/04/05 12:13:56;;;;;;;0.10;0.10;;;;;;;;;;5134991;27;20093;-84
2022/04/05 12:16:23;;;;;;;0.10;0.10;;;;;;;;;;5116863;27;20080;-85
2022/04/05 12:18:51;;;;;;;0.10;0.10;;;;;;;;;;5135113;27;20183;-84
2022/04/05 12:21:17;;;;;;;0.10;0.10;;;;;;;;;;5134895;27;20043;-87
2022/04/05 12:23:44;;;;;;;0.10;0.10;;;;;;;;;;5135064;27;20501;-86
2022/04/05 12:26:14;;;;;;;0.10;0.10;;;;;;;;;;5135577;27;20047;-85
2022/04/05 12:28:42;;;;;;;0.13;0.13;;;;;;;;;;5116373;27;20031;-85
2022/04/05 12:31:10;;;;;;;0.10;0.10;;;;;;;;;;5134912;27;20035;-82
2022/04/05 12:33:36;;;;;;;0.10;0.10;;;;;;;;;;5134904;27;20094;-81
2022/04/05 12:36:03;;;;;;;0.20;0.20;;;;;;;;;;5134725;27;20034;-81
2022/04/05 12:38:30;;;;;;;0.10;0.10;;;;;;;;;;5134979;27;20122;-81
2022/04/05 12:40:57;;;;;;;0.10;0.10;;;;;;;;;;5134817;27;20042;-83
2022/04/05 12:43:23;;;;;;;0.10;0.10;;;;;;;;;;5116198;27;20492;-87
2022/04/05 12:45:49;;;;;;;0.10;0.10;;;;;;;;;;5116517;27;20050;-86
2022/04/05 12:48:15;;;;;;;0.10;0.10;;;;;;;;;;5134664;27;20031;-87
2022/04/05 12:50:43;;;;;;;0.10;0.10;;;;;;;;;;5134516;27;20023;-89
2022/04/05 12:53:09;;;;;;;0.10;0.10;;;;;;;;;;5134197;27;20034;-82
2022/04/05 12:55:35;;;;;;;0.10;0.10;;;;;;;;;;5134265;27;20023;-84
2022/04/05 12:58:01;;;;;;;0.10;0.10;;;;;;;;;;5134700;27;20026;-80
2022/04/05 13:00:33;;;;;;;0.10;0.10;;;;;;;;;;5116225;27;20057;-83
2022/04/05 13:02:59;;;;;;;0.00;0.00;;;;;;;;;;5134619;27;20025;-83
2022/04/05 13:08:30;;;;;;;0.10;0.10;;;;;;;;;;5134034;27;20076;-78
2022/04/05 13:10:56;;;;;;;0.10;0.10;;;;;;;;;;5134175;27;20015;-78
2022/04/05 13:13:27;;;;;;;0.10;0.10;;;;;;;;;;5133945;27;20384;-80
2022/04/05 13:16:02;;;;;;;0.10;0.10;;;;;;;;;;5133966;27;20105;-84
2022/04/05 13:18:42;;;;;;;0.10;0.10;;;;;;;;;;5115541;27;20546;-78
2022/04/05 13:21:08;;;;;;;0.10;0.10;;;;;;;;;;5115355;27;20122;-82
2022/04/05 13:23:37;;;;;;;0.10;0.10;;;;;;;;;;5133900;27;20023;-80
2022/04/05 13:26:05;;;;;;;0.10;0.10;;;;;;;;;;5133661;27;20092;-83
2022/04/05 13:28:32;;;;;;;0.10;0.10;;;;;;;;;;5133040;27;20084;-84
2022/04/05 13:31:05;;;;;;;0.10;0.10;;;;;;;;;;5133839;27;20087;-83
2022/04/05 13:33:31;;;;;;;0.10;0.10;;;;;;;;;;5132910;27;20463;-87
2022/04/05 13:35:57;;;;;;;0.20;0.20;;;;;;;;;;5133736;27;20102;-82
2022/04/05 13:38:23;;;;;;;0.10;0.10;;;;;;;;;;5133427;27;20019;-78
2022/04/05 13:40:49;;;;;;;0.10;0.10;;;;;;;;;;5133192;27;20029;-77
2022/04/05 13:43:15;;;;;;;0.10;0.10;;;;;;;;;;5133473;27;20027;-82
2022/04/05 13:45:42;;;;;;;0.10;0.10;;;;;;;;;;5114938;27;20023;-82
2022/04/05 13:48:08;;;;;;;0.00;0.00;;;;;;;;;;5133361;27;20055;-82
2022/04/05 13:50:34;;;;;;;0.10;0.10;;;;;;;;;;5133031;27;20083;-81
2022/04/05 13:53:01;;;;;;;0.10;0.10;;;;;;;;;;5133463;27;20124;-82
2022/04/05 13:55:27;;;;;;;0.10;0.10;;;;;;;;;;5133853;27;20467;-83
2022/04/05 13:57:53;;;;;;;0.10;0.10;;;;;;;;;;5133332;27;20030;-85
2022/04/05 14:00:19;;;;;;;0.10;0.10;;;;;;;;;;5133484;27;20100;-86
2022/04/05 14:02:45;;;;;;;0.10;0.10;;;;;;;;;;5132933;27;20096;-80
2022/04/05 14:05:11;;;;;;;0.10;0.10;;;;;;;;;;5133251;27;20027;-84
2022/04/05 14:07:37;;;;;;;0.10;0.10;;;;;;;;;;5133443;28;20496;-88
2022/04/05 14:10:04;;;;;;;0.10;0.10;;;;;;;;;;5133375;27;20023;-84
2022/04/05 14:12:30;;;;;;;0.00;0.00;;;;;;;;;;5133210;28;20069;-88
2022/04/05 14:14:56;;;;;;;0.10;0.10;;;;;;;;;;5114954;28;20011;-84
2022/04/05 14:17:22;;;;;;;0.10;0.10;;;;;;;;;;5133049;27;20075;-82
2022/04/05 14:19:48;;;;;;;0.10;0.10;;;;;;;;;;5114821;28;20467;-82
2022/04/05 14:22:14;;;;;;;0.10;0.10;;;;;;;;;;5114574;28;20037;-87
2022/04/05 14:24:40;;;;;;;0.10;0.10;;;;;;;;;;5114483;28;20050;-86
2022/04/05 14:27:06;;;;;;;0.10;0.10;;;;;;;;;;5132650;28;20483;-82
2022/04/05 14:29:33;;;;;;;0.10;0.10;;;;;;;;;;5132725;28;20030;-84
2022/04/05 14:32:00;;;;;;;0.10;0.10;;;;;;;;;;5132803;28;20045;-83
2022/04/05 14:34:27;;;;;;;0.10;0.10;;;;;;;;;;5133046;27;20068;-76
2022/04/05 14:36:53;;;;;;;0.10;0.10;;;;;;;;;;5132205;28;20102;-76
2022/04/05 14:39:19;;;;;;;0.10;0.10;;;;;;;;;;5114127;28;20063;-75
2022/04/05 14:41:45;;;;;;;0.10;0.10;;;;;;;;;;5131941;28;20023;-76
2022/04/05 14:44:11;;;;;;;0.10;0.10;;;;;;;;;;5134586;27;20027;-78
2022/04/05 14:46:37;;;;;;;0.10;0.10;;;;;;;;;;5117932;27;20479;-77